Long Island Mac Arthur Airport
KISP : rendu visible

Aérodrome :











RETROUVEZ-NOUS SUR...

 
LOGIN :

S'inscrire | Disclaimer

   EN    FR    IT 

 









Légende :    VFR   VFR Marginal   IFR   IFR Intensif   IFR Très Intensif
Visi : 
Plafond : 
>= 8 km
>= 3000ft
5 à 8 km
1000 à 3000 ft
1500m à 5 km
500 à 1000 ft
800 à 1500m
200 à 500 ft
< 800m
< 200 ft
Symboles :   Orages  Brouillard  Fortes neiges  Fortes précipitations  Vent > 20 kt






- Altitude de l'aérodrome : 99 ft
- Code IATA : ISP


KISP - Long Island Mac Arthur

DERNIER METAR :
  • 201756Z 30010KT 10SM FEW040 BKN140 OVC250 01/M12 A3041 RMK AO2 SLP297 T00061117 10011 21022 58018

METARs EXPIRÉS :
  • 201656Z 32008KT 10SM FEW040 SCT120 BKN160 OVC250 01/M11 A3043 RMK AO2 SLP304 T00061111
  • 201556Z 32007KT 10SM FEW040 SCT160 OVC250 00/M12 A3044 RMK AO2 SLP310 T00001122

TAF KISP
Valide du 20 à 18h jusqu'au 21 à 18h UTC


201723Z 2018/2118 33011KT P6SM BKN150
FM210400 36013G21KT P6SM FEW250
FM211400 36013KT P6SM SKC
FM211700 33008KT P6SM SKC



MET'MAP, la Météo Aéronautique d'un coup d'oeil ! - Copyright ORBIFLY Décembre 2007 - Disclaimer

ORBIFLY MET'MAP TEAM :

Programmation & Développement : Alexandra Zaïnal
Sur une idée originale de : Baudouin d'Aumeries
Assistance à la programmation : Marc-Olivier Méhu
Soutien technique & logistique : Manuel Goepfert

Contact : metmap@orbifly.com




SOURCES & CREDITS :

   NOAA       Earth
Advisory